Terminal Aerodrome Forecast
Issued by NWS Shreveport, LA

Home | Current Version | Previous Version | Text Only | Print | Product List | Glossary On
Versions: 1 2 3 4 5 6 7 8 9 10 11 12 13
694
FTUS44 KSHV 112322
TAFGGG
TAF
KGGG 112322Z 1200/1224 24006KT P6SM SCT250
     FM120500 33008KT P6SM SKC
     FM121500 34012G18KT P6SM SKC
     FM121900 32009KT P6SM SKC=

USA.gov is the U.S. government's official web portal to all federal, state and local government web resources and services.